createdAt,value
2018-12-01T00:00:39.803Z,1.8
2018-12-01T00:01:39.733Z,1.7
2018-12-01T00:02:39.709Z,1.5
2018-12-01T00:03:39.774Z,1.4
2018-12-01T00:04:39.732Z,1.2
2018-12-01T00:05:39.792Z,1.1
2018-12-01T00:06:39.720Z,1
2018-12-01T00:07:39.716Z,0.9
2018-12-01T00:08:39.775Z,0.8
2018-12-01T00:09:39.705Z,0.7
2018-12-01T00:10:39.720Z,0.7
2018-12-01T00:11:39.729Z,0.6
2018-12-01T00:12:39.737Z,0.8
2018-12-01T00:13:39.784Z,0.7
2018-12-01T00:14:39.727Z,0.8
2018-12-01T00:15:39.730Z,1.5
2018-12-01T00:16:39.726Z,1.8
2018-12-01T00:17:39.729Z,2.7
2018-12-01T00:18:39.799Z,4.2
2018-12-01T00:19:39.720Z,5.1
2018-12-01T00:20:39.737Z,6.3
2018-12-01T00:21:39.791Z,7.7
2018-12-01T00:22:39.725Z,8.7
2018-12-01T00:23:39.745Z,8.8
2018-12-01T00:24:39.724Z,9
2018-12-01T00:25:39.715Z,9.2
2018-12-01T00:26:39.782Z,9.2
2018-12-01T00:27:39.727Z,9.1
2018-12-01T00:28:39.731Z,8.7
2018-12-01T00:29:39.725Z,8.1
2018-12-01T00:30:39.712Z,8
2018-12-01T00:31:39.728Z,8
2018-12-01T00:32:39.726Z,7.9
2018-12-01T00:33:39.730Z,7.8
2018-12-01T00:34:39.791Z,8.1
2018-12-01T00:35:39.705Z,8.2
2018-12-01T00:36:39.722Z,7.9
2018-12-01T00:37:39.718Z,7.7
2018-12-01T00:38:39.802Z,7.7
2018-12-01T00:39:39.719Z,7.5
2018-12-01T00:40:39.739Z,7
2018-12-01T00:41:39.702Z,6.5
2018-12-01T00:42:39.718Z,5.9
2018-12-01T00:43:39.787Z,5.4
2018-12-01T00:44:39.715Z,5.4
2018-12-01T00:45:39.720Z,5.2
2018-12-01T00:46:39.701Z,5.3
2018-12-01T00:47:39.767Z,5.1
2018-12-01T00:48:39.721Z,4.6
2018-12-01T00:49:39.785Z,4.3
2018-12-01T00:50:39.793Z,4.3
2018-12-01T00:51:39.698Z,5.3
2018-12-01T00:52:39.782Z,5.4
2018-12-01T00:53:39.723Z,5.2
2018-12-01T00:54:39.715Z,5.3
2018-12-01T00:55:39.711Z,4.9
2018-12-01T00:56:39.714Z,4.7
2018-12-01T00:57:39.762Z,4.5
2018-12-01T00:58:39.710Z,4.2
2018-12-01T00:59:39.706Z,4.3
2018-12-01T01:00:39.708Z,4.1
2018-12-01T01:01:39.878Z,4.6
2018-12-01T01:02:39.717Z,4.5
2018-12-01T01:03:39.696Z,4.5
2018-12-01T01:04:39.708Z,4.7
2018-12-01T01:05:39.707Z,5.1
2018-12-01T01:06:39.771Z,5.2
2018-12-01T01:07:39.700Z,5.3
2018-12-01T01:08:39.688Z,5.8
2018-12-01T01:09:39.711Z,6.3
2018-12-01T01:10:39.706Z,6.5
2018-12-01T01:11:39.768Z,7
2018-12-01T01:12:39.699Z,7.3
2018-12-01T01:13:39.692Z,7.9
2018-12-01T01:14:39.703Z,8.4
2018-12-01T01:15:39.716Z,8.4
2018-12-01T01:16:39.771Z,8.3
2018-12-01T01:17:39.701Z,8.8
2018-12-01T01:18:39.700Z,9
2018-12-01T01:19:39.870Z,8.9
2018-12-01T01:20:39.707Z,8.9
2018-12-01T01:21:39.698Z,8.6
2018-12-01T01:22:40.760Z,8.5
2018-12-01T01:23:39.704Z,8.1
2018-12-01T01:24:39.847Z,7.8
2018-12-01T01:25:39.681Z,8
2018-12-01T01:26:39.688Z,7.8
2018-12-01T01:27:39.704Z,7.4
2018-12-01T01:28:39.696Z,7.2
2018-12-01T01:29:39.757Z,7
2018-12-01T01:30:39.682Z,7.2
2018-12-01T01:31:39.698Z,7.4
2018-12-01T01:32:39.696Z,7.8
2018-12-01T01:33:39.749Z,7.7
2018-12-01T01:34:39.750Z,7.9
2018-12-01T01:35:39.682Z,7.9
2018-12-01T01:36:39.696Z,7.5
2018-12-01T01:37:39.750Z,7.4
2018-12-01T01:38:39.748Z,7.3
2018-12-01T01:39:39.979Z,7.9
2018-12-01T01:40:39.683Z,8.5
2018-12-01T01:41:39.678Z,9.2
2018-12-01T01:42:39.687Z,10.4
2018-12-01T01:43:39.686Z,10.7
2018-12-01T01:44:39.693Z,10.9
2018-12-01T01:45:39.687Z,11.1
2018-12-01T01:46:39.729Z,11
2018-12-01T01:47:39.681Z,10.9
2018-12-01T01:48:39.687Z,10.6
2018-12-01T01:49:39.750Z,10.5
2018-12-01T01:50:39.684Z,10.5
2018-12-01T01:51:39.672Z,10.7
2018-12-01T01:52:39.741Z,11
2018-12-01T01:53:39.688Z,11.7
2018-12-01T01:54:39.688Z,12.3
2018-12-01T01:55:39.773Z,13.1
2018-12-01T01:56:39.684Z,13.4
2018-12-01T01:57:39.659Z,13.9
2018-12-01T01:58:39.686Z,13.9
2018-12-01T01:59:39.682Z,13.8
2018-12-01T02:00:39.745Z,13.5
2018-12-01T02:01:39.676Z,13.2
2018-12-01T02:02:39.674Z,12.9
2018-12-01T02:03:39.677Z,12.6
2018-12-01T02:04:39.732Z,12
2018-12-01T02:05:39.683Z,11.6
2018-12-01T02:06:39.685Z,12
2018-12-01T02:07:39.861Z,12
2018-12-01T02:08:39.657Z,11.9
2018-12-01T02:09:39.680Z,11.6
2018-12-01T02:10:39.675Z,10.9
2018-12-01T02:11:39.677Z,10.3
2018-12-01T02:12:39.751Z,9.8
2018-12-01T02:13:39.661Z,9.7
2018-12-01T02:14:39.653Z,9.2
2018-12-01T02:15:39.743Z,8.8
2018-12-01T02:16:39.679Z,8.4
2018-12-01T02:17:39.685Z,7.9
2018-12-01T02:18:39.672Z,8
2018-12-01T02:19:39.659Z,8
2018-12-01T02:20:39.745Z,7.5
2018-12-01T02:21:39.667Z,7.7
2018-12-01T02:22:39.672Z,8
2018-12-01T02:23:39.665Z,8.4
2018-12-01T02:24:39.652Z,8.8
2018-12-01T02:25:39.756Z,9.1
2018-12-01T02:26:39.724Z,10
2018-12-01T02:27:39.679Z,10.3
2018-12-01T02:28:39.666Z,11.1
2018-12-01T02:29:39.671Z,11.5
2018-12-01T02:30:39.704Z,12.1
2018-12-01T02:31:39.730Z,12.7
2018-12-01T02:32:39.665Z,13.2
2018-12-01T02:33:39.667Z,13.7
2018-12-01T02:34:39.660Z,13.9
2018-12-01T02:35:39.712Z,14.1
2018-12-01T02:36:39.664Z,14.4
2018-12-01T02:37:39.679Z,14.6
2018-12-01T02:38:39.729Z,14.8
2018-12-01T02:39:39.666Z,14.7
2018-12-01T02:40:39.650Z,14.5
2018-12-01T02:41:39.645Z,13.9
2018-12-01T02:42:39.666Z,13
2018-12-01T02:43:39.715Z,12
2018-12-01T02:44:39.658Z,10.8
2018-12-01T02:45:39.665Z,9.8
2018-12-01T02:46:39.643Z,9
2018-12-01T02:47:39.715Z,8.1
2018-12-01T02:48:39.658Z,7.5
2018-12-01T02:49:39.655Z,6.8
2018-12-01T02:50:39.728Z,6.2
2018-12-01T02:51:39.643Z,6.1
2018-12-01T02:52:39.729Z,5.7
2018-12-01T02:53:39.647Z,5.6
2018-12-01T02:54:39.657Z,5.5
2018-12-01T02:55:39.722Z,5.4
2018-12-01T02:56:39.650Z,5.4
2018-12-01T02:57:39.634Z,5
2018-12-01T02:58:39.705Z,5.1
2018-12-01T02:59:39.655Z,4.9
2018-12-01T03:00:39.721Z,5.3
2018-12-01T03:01:39.651Z,5.6
2018-12-01T03:02:39.639Z,5.6
2018-12-01T03:03:39.707Z,5.3
2018-12-01T03:04:39.644Z,5.1
2018-12-01T03:05:39.647Z,4.8
2018-12-01T03:06:39.653Z,4.9
2018-12-01T03:07:39.649Z,5
2018-12-01T03:08:39.704Z,5.2
2018-12-01T03:09:39.648Z,5
2018-12-01T03:10:39.712Z,4.8
2018-12-01T03:11:39.648Z,5.7
2018-12-01T03:12:39.649Z,6.3
2018-12-01T03:13:39.701Z,7.1
2018-12-01T03:14:39.652Z,7.3
2018-12-01T03:15:39.642Z,7.8
2018-12-01T03:16:39.646Z,8.2
2018-12-01T03:17:39.649Z,8.3
2018-12-01T03:18:39.715Z,8.4
2018-12-01T03:19:39.618Z,8.5
2018-12-01T03:20:39.650Z,8.1
2018-12-01T03:21:39.639Z,8.1
2018-12-01T03:22:39.652Z,8.1
2018-12-01T03:23:39.709Z,7.8
2018-12-01T03:24:39.626Z,8
2018-12-01T03:25:39.633Z,7.9
2018-12-01T03:26:39.641Z,8
2018-12-01T03:27:39.636Z,7.9
2018-12-01T03:28:39.704Z,7.8
2018-12-01T03:29:39.638Z,7.3
2018-12-01T03:30:39.625Z,7.2
2018-12-01T03:31:39.699Z,6.7
2018-12-01T03:32:39.635Z,6.8
2018-12-01T03:33:39.636Z,6.6
2018-12-01T03:34:39.631Z,6.7
2018-12-01T03:35:39.670Z,6.6
2018-12-01T03:36:39.637Z,6.8
2018-12-01T03:37:39.687Z,6.9
2018-12-01T03:38:39.640Z,6.8
2018-12-01T03:39:39.628Z,6.8
2018-12-01T03:40:39.684Z,6.5
2018-12-01T03:41:39.613Z,6.5
2018-12-01T03:42:39.631Z,6.6
2018-12-01T03:43:39.633Z,6.8
2018-12-01T03:44:39.631Z,6.6
2018-12-01T03:45:39.762Z,7
2018-12-01T03:46:39.617Z,6.8
2018-12-01T03:47:39.636Z,6.6
2018-12-01T03:48:39.629Z,6
2018-12-01T03:49:39.627Z,5.6
2018-12-01T03:50:39.699Z,5.5
2018-12-01T03:51:39.612Z,5.5
2018-12-01T03:52:39.691Z,5.4
2018-12-01T03:53:39.627Z,5.3
2018-12-01T03:54:39.624Z,5.2
2018-12-01T03:55:39.685Z,4.7
2018-12-01T03:56:39.618Z,4.5
2018-12-01T03:57:39.599Z,4.2
2018-12-01T03:58:39.670Z,4.1
2018-12-01T03:59:39.616Z,3.8
2018-12-01T04:00:39.619Z,4.3
2018-12-01T04:01:39.622Z,4.9
2018-12-01T04:02:39.612Z,5.3
2018-12-01T04:03:39.711Z,5.5
2018-12-01T04:04:39.618Z,5.9
2018-12-01T04:05:39.618Z,6
2018-12-01T04:06:39.622Z,5.8
2018-12-01T04:07:39.615Z,5.5
2018-12-01T04:08:39.653Z,5.2
2018-12-01T04:09:39.617Z,5
2018-12-01T04:10:39.683Z,5.3
2018-12-01T04:11:39.617Z,5.9
2018-12-01T04:12:39.689Z,6.5
2018-12-01T04:13:39.595Z,6.9
2018-12-01T04:14:39.631Z,6.7
2018-12-01T04:15:39.613Z,6.4
2018-12-01T04:16:39.610Z,6
2018-12-01T04:17:39.676Z,5.5
2018-12-01T04:18:39.614Z,5
2018-12-01T04:19:39.602Z,4.5
2018-12-01T04:20:39.671Z,4.1
2018-12-01T04:21:39.613Z,3.7
2018-12-01T04:22:39.603Z,3.3
2018-12-01T04:23:39.607Z,3
2018-12-01T04:24:39.588Z,2.7
2018-12-01T04:25:39.655Z,2.5
2018-12-01T04:26:39.677Z,2.2
2018-12-01T04:27:39.596Z,2.3
2018-12-01T04:28:39.605Z,2.7
2018-12-01T04:29:39.593Z,3.3
2018-12-01T04:30:39.642Z,3.5
2018-12-01T04:31:39.656Z,3.3
2018-12-01T04:32:39.666Z,3
2018-12-01T04:33:39.668Z,2.7
2018-12-01T04:34:39.610Z,2.5
2018-12-01T04:35:39.633Z,2.3
2018-12-01T04:36:39.604Z,2.1
2018-12-01T04:37:39.600Z,1.9
2018-12-01T04:38:39.596Z,1.7
2018-12-01T04:39:39.669Z,1.5
2018-12-01T04:40:39.587Z,1.4
2018-12-01T04:41:39.657Z,1.2
2018-12-01T04:42:39.594Z,1.1
2018-12-01T04:43:39.598Z,1.2
2018-12-01T04:44:39.599Z,1.8
2018-12-01T04:45:39.598Z,1.8
2018-12-01T04:46:39.646Z,1.7
2018-12-01T04:47:39.662Z,1.5
2018-12-01T04:48:39.596Z,1.4
2018-12-01T04:49:39.584Z,1.3
2018-12-01T04:50:39.595Z,1.2
2018-12-01T04:51:39.585Z,1.1
2018-12-01T04:52:39.663Z,1
2018-12-01T04:53:39.598Z,0.9
2018-12-01T04:54:39.587Z,0.8
2018-12-01T04:55:39.642Z,0.8
2018-12-01T04:56:39.588Z,0.7
2018-12-01T04:57:39.643Z,0.6
2018-12-01T04:58:39.659Z,0.6
2018-12-01T04:59:39.590Z,0.5
2018-12-01T05:00:39.595Z,0.5
2018-12-01T05:01:39.587Z,0.4
2018-12-01T05:02:39.622Z,0.4
2018-12-01T05:03:39.586Z,0.4
2018-12-01T05:04:39.594Z,0.4
2018-12-01T05:05:39.654Z,0.5
2018-12-01T05:06:39.580Z,1.1
2018-12-01T05:07:39.591Z,1.2
2018-12-01T05:08:39.563Z,1.3
2018-12-01T05:09:39.587Z,1.4
2018-12-01T05:10:39.587Z,1.4
2018-12-01T05:11:39.633Z,1.6
2018-12-01T05:12:39.584Z,1.7
2018-12-01T05:13:39.569Z,3.1
2018-12-01T05:14:39.583Z,3.2
2018-12-01T05:15:39.647Z,3
2018-12-01T05:16:39.577Z,2.7
2018-12-01T05:17:39.581Z,3
2018-12-01T05:18:39.566Z,2.8
2018-12-01T05:19:39.573Z,2.5
2018-12-01T05:20:39.649Z,2.6
2018-12-01T05:21:39.578Z,3.9
2018-12-01T05:22:39.584Z,4.4
2018-12-01T05:23:39.580Z,5.2
2018-12-01T05:24:39.638Z,6.1
2018-12-01T05:25:39.569Z,6.1
2018-12-01T05:26:39.572Z,6.6
2018-12-01T05:27:39.568Z,6.8
2018-12-01T05:28:39.576Z,7.5
2018-12-01T05:29:39.621Z,8.1
2018-12-01T05:30:39.575Z,8.7
2018-12-01T05:31:39.630Z,8.9
2018-12-01T05:32:39.585Z,9.3
2018-12-01T05:33:39.628Z,9.2
2018-12-01T05:34:39.572Z,9.4
2018-12-01T05:35:39.621Z,9.4
2018-12-01T05:36:39.568Z,9.8
2018-12-01T05:37:39.564Z,9.8
2018-12-01T05:38:39.572Z,10.3
2018-12-01T05:39:39.578Z,10.3
2018-12-01T05:40:39.676Z,9.8
2018-12-01T05:41:40.457Z,9.3
2018-12-01T05:42:39.564Z,8.9
2018-12-01T05:43:39.568Z,9
2018-12-01T05:44:39.570Z,8.6
2018-12-01T05:45:39.638Z,8.7
2018-12-01T05:46:39.550Z,9
2018-12-01T05:47:39.631Z,8.7
2018-12-01T05:48:39.573Z,8.9
2018-12-01T05:49:39.584Z,8.6
2018-12-01T05:50:39.552Z,8.7
2018-12-01T05:51:39.629Z,8.7
2018-12-01T05:52:39.550Z,8.2
2018-12-01T05:53:39.556Z,8.2
2018-12-01T05:54:39.646Z,8.2
2018-12-01T05:55:39.564Z,8.4
2018-12-01T05:56:39.565Z,8
2018-12-01T05:57:39.543Z,8.2
2018-12-01T05:58:39.625Z,9
2018-12-01T05:59:39.553Z,9.5
2018-12-01T06:00:39.561Z,9.9
2018-12-01T06:01:39.561Z,10
2018-12-01T06:02:39.543Z,9.7
2018-12-01T06:03:39.668Z,8.9
2018-12-01T06:04:39.927Z,8.2
2018-12-01T06:05:39.535Z,7.7
2018-12-01T06:06:39.556Z,7.1
2018-12-01T06:07:39.559Z,6.4
2018-12-01T06:08:39.604Z,5.8
2018-12-01T06:09:39.552Z,5.3
2018-12-01T06:10:39.553Z,4.8
2018-12-01T06:11:39.559Z,4.4
2018-12-01T06:12:39.555Z,4
2018-12-01T06:13:39.608Z,3.9
2018-12-01T06:14:39.620Z,4.2
2018-12-01T06:15:39.620Z,4.4
2018-12-01T06:16:39.618Z,5
2018-12-01T06:17:39.550Z,5.8
2018-12-01T06:18:39.541Z,6.4
2018-12-01T06:19:39.550Z,6.9
2018-12-01T06:20:39.599Z,6.6
2018-12-01T06:21:39.552Z,6.4
2018-12-01T06:22:39.660Z,7
2018-12-01T06:23:39.547Z,7.4
2018-12-01T06:24:39.537Z,7.8
2018-12-01T06:25:39.547Z,8.4
2018-12-01T06:26:39.546Z,9
2018-12-01T06:27:39.613Z,10
2018-12-01T06:28:39.544Z,10.5
2018-12-01T06:29:39.531Z,11.5
2018-12-01T06:30:39.740Z,12
2018-12-01T06:31:42.498Z,12.3
2018-12-01T06:32:39.680Z,12.4
2018-12-01T06:33:39.600Z,12.8
2018-12-01T06:34:39.602Z,12.7
2018-12-01T06:35:39.634Z,12.5
2018-12-01T06:36:39.673Z,13.1
2018-12-01T06:37:39.561Z,14
2018-12-01T06:38:39.661Z,14
2018-12-01T06:39:39.599Z,15.4
2018-12-01T06:40:39.674Z,16.1
2018-12-01T06:41:39.697Z,17.6
2018-12-01T06:42:39.698Z,18.8
2018-12-01T06:43:39.681Z,20
2018-12-01T06:44:39.751Z,19.9
2018-12-01T06:45:39.699Z,19.8
2018-12-01T06:46:39.568Z,19.8
2018-12-01T06:47:39.807Z,19.8
2018-12-01T06:48:39.623Z,21
2018-12-01T06:49:39.599Z,21.3
2018-12-01T06:50:39.587Z,21.2
2018-12-01T06:51:39.601Z,21.1
2018-12-01T06:52:39.656Z,21.6
2018-12-01T06:53:39.694Z,21.6
2018-12-01T06:54:39.597Z,21.5
2018-12-01T06:55:39.596Z,21.5
2018-12-01T06:56:39.604Z,21.2
2018-12-01T06:57:39.644Z,20.8
2018-12-01T06:58:39.659Z,20.9
2018-12-01T06:59:39.760Z,20.6
2018-12-01T07:00:39.713Z,21.2
2018-12-01T07:01:39.603Z,21.7
2018-12-01T07:02:39.561Z,22.3
2018-12-01T07:03:41.717Z,22.1
2018-12-01T07:04:39.569Z,22.5
2018-12-01T07:05:39.546Z,22.8
2018-12-01T07:06:39.580Z,22.9
2018-12-01T07:07:40.037Z,22.5
2018-12-01T07:08:39.630Z,22.2
2018-12-01T07:09:39.606Z,22.1
2018-12-01T07:10:39.702Z,21.8
2018-12-01T07:11:39.612Z,22
2018-12-01T07:12:39.605Z,22.3
2018-12-01T07:13:39.594Z,22.4
2018-12-01T07:14:39.557Z,22.7
2018-12-01T07:15:39.670Z,22.8
2018-12-01T07:16:39.524Z,22.5
2018-12-01T07:17:39.518Z,22.7
2018-12-01T07:18:39.499Z,22.8
2018-12-01T07:19:39.510Z,23.9
2018-12-01T07:20:39.551Z,23.8
2018-12-01T07:21:39.512Z,24
2018-12-01T07:22:39.517Z,24.1
2018-12-01T07:23:39.584Z,23.9
2018-12-01T07:24:39.504Z,24
2018-12-01T07:25:39.515Z,23.8
2018-12-01T07:26:39.522Z,23.9
2018-12-01T07:27:39.574Z,24
2018-12-01T07:28:39.512Z,23.9
2018-12-01T07:29:39.506Z,23.9
2018-12-01T07:30:41.768Z,23.8
2018-12-01T07:31:39.588Z,23.5
2018-12-01T07:32:39.498Z,23.4
2018-12-01T07:33:39.523Z,23.2
2018-12-01T07:34:39.494Z,23.2
2018-12-01T07:35:39.498Z,23
2018-12-01T07:36:39.609Z,23.5
2018-12-01T07:37:41.484Z,23.7
2018-12-01T07:38:39.518Z,23.3
2018-12-01T07:39:39.510Z,23.7
2018-12-01T07:40:39.567Z,23.4
2018-12-01T07:41:39.501Z,23.2
2018-12-01T07:42:39.492Z,22.9
2018-12-01T07:43:39.490Z,23
2018-12-01T07:44:39.587Z,23.3
2018-12-01T07:45:39.488Z,23.6
2018-12-01T07:46:39.497Z,23.5
2018-12-01T07:47:40.011Z,23.4
2018-12-01T07:48:40.523Z,23.1
2018-12-01T07:49:41.394Z,23.2
2018-12-01T07:50:41.399Z,23.5
2018-12-01T07:51:39.582Z,23.4
2018-12-01T07:52:39.502Z,23.6
2018-12-01T07:53:39.506Z,23.3
2018-12-01T07:54:39.543Z,23.2
2018-12-01T07:55:39.502Z,23
2018-12-01T07:56:39.512Z,22.6
2018-12-01T07:57:39.490Z,22.4
2018-12-01T07:58:39.563Z,22.4
2018-12-01T07:59:39.511Z,21.8
2018-12-01T08:00:39.667Z,21.9
2018-12-01T08:01:39.507Z,21.4
2018-12-01T08:02:39.485Z,21.1
2018-12-01T08:03:39.506Z,20.6
2018-12-01T08:04:39.499Z,20.8
2018-12-01T08:05:40.157Z,20.3
2018-12-01T08:06:39.602Z,19.8
2018-12-01T08:07:39.498Z,19.9
2018-12-01T08:08:39.490Z,19.5
2018-12-01T08:09:54.566Z,19.5
2018-12-01T08:10:39.572Z,20
2018-12-01T08:11:39.487Z,20.3
2018-12-01T08:12:39.544Z,20.2
2018-12-01T08:13:39.490Z,20.1
2018-12-01T08:14:39.502Z,20.1
2018-12-01T08:15:39.579Z,19.9
2018-12-01T08:16:39.489Z,19.8
2018-12-01T08:17:39.495Z,19.7
2018-12-01T08:18:39.562Z,19
2018-12-01T08:19:43.822Z,19.3
2018-12-01T08:20:39.481Z,20.3
2018-12-01T08:21:41.657Z,20.3
2018-12-01T08:22:41.477Z,20.4
2018-12-01T08:23:40.566Z,20.4
2018-12-01T08:24:39.489Z,20.1
2018-12-01T08:25:39.559Z,20.2
2018-12-01T08:26:39.490Z,20.2
2018-12-01T08:27:39.507Z,20.5
2018-12-01T08:28:39.495Z,20.2
2018-12-01T08:29:39.484Z,20.3
2018-12-01T08:30:39.572Z,20.8
2018-12-01T08:31:39.500Z,20.7
2018-12-01T08:32:39.498Z,20.6
2018-12-01T08:33:39.509Z,20.4
2018-12-01T08:34:39.494Z,20.4
2018-12-01T08:35:39.545Z,21.4
2018-12-01T08:36:39.488Z,22
2018-12-01T08:37:39.489Z,22.3
2018-12-01T08:38:39.499Z,22.5
2018-12-01T08:39:39.670Z,23.4
2018-12-01T08:40:39.472Z,24
2018-12-01T08:41:39.495Z,24.6
2018-12-01T08:42:39.544Z,25.6
2018-12-01T08:43:39.489Z,25.6
2018-12-01T08:44:39.485Z,24.7
2018-12-01T08:45:39.646Z,24.5
2018-12-01T08:46:39.470Z,24.3
2018-12-01T08:47:39.485Z,23.9
2018-12-01T08:48:39.483Z,24.1
2018-12-01T08:49:39.490Z,23.9
2018-12-01T08:50:39.551Z,23.2
2018-12-01T08:51:39.470Z,22.6
2018-12-01T08:53:41.777Z,1.8
2018-12-01T08:54:41.885Z,3.5
2018-12-01T08:55:41.784Z,4.6
2018-12-01T08:56:41.754Z,5.6
2018-12-01T08:57:41.768Z,7
2018-12-01T08:58:41.828Z,7.7
2018-12-01T08:59:41.827Z,8.4
2018-12-01T09:00:41.840Z,9
2018-12-01T09:01:41.882Z,9.9
2018-12-01T09:02:41.758Z,10.7
2018-12-01T09:03:41.779Z,11.5
2018-12-01T09:04:41.772Z,12.1
2018-12-01T09:05:41.834Z,12.6
2018-12-01T09:06:41.771Z,13.5
2018-12-01T09:07:41.752Z,14.2
2018-12-01T09:08:41.760Z,14.7
2018-12-01T09:09:41.766Z,15.7
2018-12-01T09:10:41.777Z,16.2
2018-12-01T09:11:41.773Z,16.3
2018-12-01T09:12:41.826Z,17.3
2018-12-01T09:13:41.765Z,18.2
2018-12-01T09:14:41.771Z,19.3
2018-12-01T09:15:41.834Z,20.8
2018-12-01T09:16:41.831Z,21.6
2018-12-01T09:17:41.769Z,22.6
2018-12-01T09:18:41.791Z,22.2
2018-12-01T09:19:41.753Z,23.1
2018-12-01T09:20:41.847Z,23.7
2018-12-01T09:21:41.800Z,24.7
2018-12-01T09:22:41.763Z,24.7
2018-12-01T09:23:41.762Z,24.7
2018-12-01T09:24:41.910Z,25.6
2018-12-01T09:25:41.769Z,25.1
2018-12-01T09:26:41.762Z,24.8
2018-12-01T09:27:41.749Z,24.2
2018-12-01T09:28:41.775Z,24.5
2018-12-01T09:29:41.801Z,25.1
2018-12-01T09:30:41.780Z,25.5
2018-12-01T09:31:41.827Z,25.4
2018-12-01T09:32:41.772Z,25.5
2018-12-01T09:33:41.827Z,25.1
2018-12-01T09:34:41.841Z,25
2018-12-01T09:35:41.738Z,24.9
2018-12-01T09:36:41.761Z,25.8
2018-12-01T09:37:41.764Z,26.3
2018-12-01T09:38:42.025Z,26.2
2018-12-01T09:39:41.761Z,26.4
2018-12-01T09:40:41.751Z,26.4
2018-12-01T09:41:41.759Z,26.8
2018-12-01T09:42:41.760Z,27.4
2018-12-01T09:43:41.832Z,27.5
2018-12-01T09:44:41.743Z,27.1
2018-12-01T09:45:41.819Z,27.3
2018-12-01T09:46:41.741Z,27.4
2018-12-01T09:47:41.770Z,28.1
2018-12-01T09:48:41.818Z,28.5
2018-12-01T09:49:41.765Z,29.2
2018-12-01T09:50:41.826Z,29.5
2018-12-01T09:51:41.746Z,29.5
2018-12-01T09:52:41.757Z,29.5
2018-12-01T09:53:41.763Z,29.9
2018-12-01T09:54:41.758Z,30.4
2018-12-01T09:55:41.824Z,30.4
2018-12-01T09:56:41.815Z,31
2018-12-01T09:57:41.752Z,30.3
2018-12-01T09:58:41.760Z,30.6
2018-12-01T09:59:41.757Z,30.5
2018-12-01T10:00:41.843Z,30.6
2018-12-01T10:01:41.763Z,30.7
2018-12-01T10:02:41.744Z,30.6
2018-12-01T10:03:41.757Z,30.6
2018-12-01T10:04:41.757Z,30.2
2018-12-01T10:05:41.871Z,29.4
2018-12-01T10:06:41.759Z,28.6
2018-12-01T10:07:41.734Z,27.7
2018-12-01T10:08:41.746Z,26.9
2018-12-01T10:09:41.765Z,26.4
2018-12-01T10:10:41.833Z,26.2
2018-12-01T10:11:41.825Z,25.5
2018-12-01T10:12:41.757Z,25.1
2018-12-01T10:13:41.743Z,24.2
2018-12-01T10:14:41.819Z,23.4
2018-12-01T10:15:41.751Z,22.8
2018-12-01T10:16:41.980Z,21.9
2018-12-01T10:17:41.749Z,21.4
2018-12-01T10:18:41.734Z,21.3
2018-12-01T10:19:41.742Z,20.9
2018-12-01T10:20:41.747Z,20.5
2018-12-01T10:21:41.824Z,20.1
2018-12-01T10:22:41.746Z,20.5
2018-12-01T10:23:41.751Z,20.8
2018-12-01T10:24:41.735Z,20.1
2018-12-01T10:25:41.759Z,19.7
2018-12-01T10:26:41.826Z,20
2018-12-01T10:27:41.742Z,20
2018-12-01T10:28:41.821Z,20.2
2018-12-01T10:29:41.730Z,20.6
2018-12-01T10:30:41.754Z,20.2
2018-12-01T10:31:41.736Z,20.5
2018-12-01T10:32:41.783Z,20.6
2018-12-01T10:33:41.789Z,20.3
2018-12-01T10:34:41.752Z,20.2
2018-12-01T10:35:41.730Z,19.7
2018-12-01T10:36:41.826Z,19.9
2018-12-01T10:37:41.743Z,20.2
2018-12-01T10:38:41.753Z,19.7
2018-12-01T10:39:41.739Z,19.6
2018-12-01T10:40:41.726Z,19.4
2018-12-01T10:41:41.871Z,19.3
2018-12-01T10:42:41.795Z,19.5
2018-12-01T10:43:41.742Z,19.3
2018-12-01T10:44:41.745Z,18.4
2018-12-01T10:45:41.782Z,18.2
2018-12-01T10:46:41.730Z,17.4
2018-12-01T10:47:41.744Z,16.9
2018-12-01T10:48:41.798Z,17.2
2018-12-01T10:49:41.726Z,18.4
2018-12-01T10:50:41.743Z,18.7
2018-12-01T10:51:41.725Z,19.5
2018-12-01T10:52:41.743Z,20.1
2018-12-01T10:53:41.797Z,20
2018-12-01T10:54:41.794Z,19.8
2018-12-01T10:55:41.819Z,19.6
2018-12-01T10:56:41.732Z,20.2
2018-12-01T10:57:41.733Z,21.5
2018-12-01T10:58:41.737Z,22.6
2018-12-01T10:59:41.739Z,23.9
2018-12-01T11:00:41.802Z,23.4
2018-12-01T11:01:41.736Z,23.4
2018-12-01T11:02:41.722Z,23.4
2018-12-01T11:03:41.744Z,23.3
2018-12-01T11:04:41.751Z,23.6
2018-12-01T11:05:41.818Z,23.8
2018-12-01T11:06:41.737Z,23.7
2018-12-01T11:07:41.739Z,22.9
2018-12-01T11:08:41.732Z,22.2
2018-12-01T11:09:41.747Z,21.4
2018-12-01T11:10:41.787Z,21.5
2018-12-01T11:11:41.759Z,21.5
2018-12-01T11:12:41.744Z,21.7
2018-12-01T11:13:41.723Z,22.1
2018-12-01T11:14:41.721Z,22.9
2018-12-01T11:15:41.786Z,23.1
2018-12-01T11:16:41.725Z,22.8
2018-12-01T11:17:41.737Z,23
2018-12-01T11:18:41.805Z,22.5
2018-12-01T11:19:41.737Z,23.1
2018-12-01T11:20:41.741Z,22.9
2018-12-01T11:21:41.740Z,22.9
2018-12-01T11:22:41.795Z,22.3
2018-12-01T11:23:41.793Z,22.8
2018-12-01T11:24:41.715Z,23.2
2018-12-01T11:25:41.733Z,23.2
2018-12-01T11:26:41.759Z,23.5
2018-12-01T11:27:41.735Z,23.4
2018-12-01T11:28:41.801Z,22.9
2018-12-01T11:29:41.719Z,22.7
2018-12-01T11:30:41.805Z,22.3
2018-12-01T11:31:41.756Z,22.3
2018-12-01T11:32:42.228Z,22.6
2018-12-01T11:33:41.711Z,22.5
2018-12-01T11:34:41.717Z,21.9
2018-12-01T11:35:41.717Z,21.7
2018-12-01T11:36:41.741Z,21.6
2018-12-01T11:37:41.815Z,21.1
2018-12-01T11:38:41.803Z,21.3
2018-12-01T11:39:41.735Z,20.7
2018-12-01T11:40:41.716Z,20.2
2018-12-01T11:41:41.732Z,20.2
2018-12-01T11:42:41.783Z,20.3
2018-12-01T11:43:41.840Z,20.6
2018-12-01T11:44:41.723Z,21.1
2018-12-01T11:45:41.722Z,21.8
2018-12-01T11:46:41.728Z,22.2
2018-12-01T11:47:41.713Z,22.1
2018-12-01T11:48:41.796Z,21.3
2018-12-01T11:49:41.900Z,21.4
2018-12-01T11:50:41.725Z,21.6
2018-12-01T11:51:41.725Z,21.8
2018-12-01T11:52:41.728Z,21.4
2018-12-01T11:53:41.726Z,21.4
2018-12-01T11:54:41.875Z,21.2
2018-12-01T11:55:41.727Z,21.1
2018-12-01T11:56:41.718Z,20.6
2018-12-01T11:57:41.708Z,21.6
2018-12-01T11:58:41.730Z,22.1
2018-12-01T11:59:41.794Z,22.6
2018-12-01T12:00:41.722Z,23
2018-12-01T12:01:41.722Z,23.1
2018-12-01T12:02:41.727Z,23.5
2018-12-01T12:03:41.718Z,23.6
2018-12-01T12:04:41.727Z,23.6
2018-12-01T12:05:41.856Z,23.8
2018-12-01T12:06:41.719Z,24.6
2018-12-01T12:07:41.700Z,24.9
2018-12-01T12:08:41.721Z,25.8
2018-12-01T12:09:41.719Z,26.8
2018-12-01T12:10:41.797Z,27.7
2018-12-01T12:11:41.719Z,28.5
2018-12-01T12:12:41.722Z,27.9
2018-12-01T12:13:41.702Z,27.4
2018-12-01T12:14:41.732Z,27
2018-12-01T12:15:41.789Z,27.4
2018-12-01T12:16:41.722Z,27.6
2018-12-01T12:17:41.767Z,28.5
2018-12-01T12:18:41.799Z,30.1
2018-12-01T12:19:41.729Z,30.7
2018-12-01T12:20:41.714Z,30.8
2018-12-01T12:21:41.704Z,32
2018-12-01T12:22:41.718Z,31.8
2018-12-01T12:23:41.706Z,30.6
2018-12-01T12:24:41.708Z,30
2018-12-01T12:25:41.697Z,29.4
2018-12-01T12:26:41.799Z,29.1
2018-12-01T12:27:41.709Z,29.8
2018-12-01T12:28:41.732Z,29.5
2018-12-01T12:29:41.842Z,28.8
2018-12-01T12:30:41.716Z,28.4
2018-12-01T12:31:44.600Z,29
2018-12-01T12:32:41.702Z,29.1
2018-12-01T12:33:41.700Z,29.2
2018-12-01T12:34:41.755Z,29.1
2018-12-01T12:35:41.830Z,28.8
2018-12-01T12:36:41.712Z,29.2
2018-12-01T12:37:41.808Z,29.1
2018-12-01T12:38:41.711Z,29.4
2018-12-01T12:39:41.710Z,29.3
2018-12-01T12:40:41.746Z,29.4
2018-12-01T12:41:41.710Z,29.2
2018-12-01T12:42:41.776Z,29.8
2018-12-01T12:43:41.707Z,29.9
2018-12-01T12:44:41.708Z,29.7
2018-12-01T12:45:41.747Z,29.2
2018-12-01T12:46:41.707Z,28.9
2018-12-01T12:47:41.780Z,28.9
2018-12-01T12:48:41.777Z,29
2018-12-01T12:49:41.832Z,29.5
2018-12-01T12:50:41.708Z,29.7
2018-12-01T12:51:41.688Z,29.5
2018-12-01T12:52:41.703Z,29.2
2018-12-01T12:53:41.792Z,29.8
2018-12-01T12:54:41.751Z,29.1
2018-12-01T12:55:41.705Z,28.2
2018-12-01T12:56:41.702Z,27.8
2018-12-01T12:57:41.709Z,27.7
2018-12-01T12:58:41.768Z,28.6
2018-12-01T12:59:41.696Z,28.4
2018-12-01T13:00:41.698Z,28.6
2018-12-01T13:01:41.798Z,28.6
2018-12-01T13:02:41.690Z,28.5
2018-12-01T13:03:41.711Z,28.9
2018-12-01T13:04:41.829Z,28.2
2018-12-01T13:05:44.245Z,28.2
2018-12-01T13:06:41.693Z,28.2
2018-12-01T13:07:41.707Z,28.3
2018-12-01T13:08:41.698Z,27.6
2018-12-01T13:09:42.566Z,28.3
2018-12-01T13:10:41.962Z,28.7
2018-12-01T13:11:41.847Z,28.3
2018-12-01T13:12:41.698Z,28.7
2018-12-01T13:13:41.746Z,28.8
2018-12-01T13:14:41.771Z,28.7
2018-12-01T13:15:41.700Z,28.4
2018-12-01T13:16:41.693Z,28.8
2018-12-01T13:17:41.760Z,28.7
2018-12-01T13:18:43.547Z,29.4
2018-12-01T13:19:41.769Z,30.5
2018-12-01T13:20:41.700Z,30.8
2018-12-01T13:21:41.682Z,30.7
2018-12-01T13:22:41.717Z,30.7
2018-12-01T13:23:41.791Z,31.4
2018-12-01T13:24:41.698Z,31.3
2018-12-01T13:25:41.690Z,31
2018-12-01T13:26:42.831Z,30.5
2018-12-01T13:27:41.735Z,30.5
2018-12-01T13:28:42.300Z,31.5
2018-12-01T13:29:43.054Z,31.4
2018-12-01T13:30:41.670Z,31.2
2018-12-01T13:31:41.755Z,31.2
2018-12-01T13:32:41.694Z,30.8
2018-12-01T13:33:41.692Z,30.8
2018-12-01T13:34:41.676Z,30.8
2018-12-01T13:35:41.759Z,31.4
2018-12-01T13:36:41.751Z,31.1